sensor_id;sensor_type;location;lat;lon;timestamp;pressure;altitude;pressure_sealevel;temperature;humidity
75008;BME280;63554;48.940;12.050;2024-01-06T00:00:45;96189.59;;;3.13;100.00
75008;BME280;63554;48.940;12.050;2024-01-06T00:04:50;96187.97;;;3.12;100.00
75008;BME280;63554;48.940;12.050;2024-01-06T00:08:55;96191.88;;;3.16;100.00
75008;BME280;63554;48.940;12.050;2024-01-06T00:12:57;96183.22;;;3.07;100.00
75008;BME280;63554;48.940;12.050;2024-01-06T00:17:00;96184.06;;;3.08;100.00
75008;BME280;63554;48.940;12.050;2024-01-06T00:21:03;96176.44;;;3.05;100.00
75008;BME280;63554;48.940;12.050;2024-01-06T00:25:07;96185.50;;;3.10;100.00
75008;BME280;63554;48.940;12.050;2024-01-06T00:29:10;96179.53;;;3.08;100.00
75008;BME280;63554;48.940;12.050;2024-01-06T00:33:13;96182.81;;;3.10;100.00
75008;BME280;63554;48.940;12.050;2024-01-06T00:37:16;96180.34;;;3.09;100.00
75008;BME280;63554;48.940;12.050;2024-01-06T00:41:20;96178.91;;;3.13;100.00
75008;BME280;63554;48.940;12.050;2024-01-06T00:45:23;96177.47;;;3.10;100.00
75008;BME280;63554;48.940;12.050;2024-01-06T00:49:25;96187.56;;;3.15;100.00
75008;BME280;63554;48.940;12.050;2024-01-06T00:53:28;96181.41;;;3.14;100.00
75008;BME280;63554;48.940;12.050;2024-01-06T00:57:32;96184.50;;;3.18;100.00
75008;BME280;63554;48.940;12.050;2024-01-06T01:01:35;96188.19;;;3.17;100.00
75008;BME280;63554;48.940;12.050;2024-01-06T01:05:38;96188.38;;;3.15;100.00
75008;BME280;63554;48.940;12.050;2024-01-06T01:09:41;96198.25;;;3.15;100.00
75008;BME280;63554;48.940;12.050;2024-01-06T01:13:45;96199.69;;;3.11;100.00
75008;BME280;63554;48.940;12.050;2024-01-06T01:17:48;96198.44;;;3.07;100.00
75008;BME280;63554;48.940;12.050;2024-01-06T01:21:50;96199.44;;;3.06;100.00
75008;BME280;63554;48.940;12.050;2024-01-06T01:25:57;96208.31;;;3.06;100.00
75008;BME280;63554;48.940;12.050;2024-01-06T01:30:01;96214.84;;;3.04;100.00
75008;BME280;63554;48.940;12.050;2024-01-06T01:34:04;96202.13;;;3.06;100.00
75008;BME280;63554;48.940;12.050;2024-01-06T01:38:07;96205.44;;;3.08;100.00
75008;BME280;63554;48.940;12.050;2024-01-06T01:42:09;96201.34;;;3.12;100.00
75008;BME280;63554;48.940;12.050;2024-01-06T01:46:14;96195.16;;;3.11;100.00
75008;BME280;63554;48.940;12.050;2024-01-06T01:50:17;96198.06;;;3.16;100.00
75008;BME280;63554;48.940;12.050;2024-01-06T01:54:21;96191.88;;;3.16;100.00
75008;BME280;63554;48.940;12.050;2024-01-06T01:58:24;96187.56;;;3.15;100.00
75008;BME280;63554;48.940;12.050;2024-01-06T02:02:29;96186.13;;;3.19;100.00
75008;BME280;63554;48.940;12.050;2024-01-06T02:06:31;96176.06;;;3.21;100.00
75008;BME280;63554;48.940;12.050;2024-01-06T02:10:34;96187.78;;;3.20;100.00
75008;BME280;63554;48.940;12.050;2024-01-06T02:14:37;96192.09;;;3.21;100.00
75008;BME280;63554;48.940;12.050;2024-01-06T02:18:41;96178.72;;;3.21;100.00
75008;BME280;63554;48.940;12.050;2024-01-06T02:22:46;96189.41;;;3.21;100.00
75008;BME280;63554;48.940;12.050;2024-01-06T02:26:49;96195.38;;;3.23;100.00
75008;BME280;63554;48.940;12.050;2024-01-06T02:30:52;96184.91;;;3.22;100.00
75008;BME280;63554;48.940;12.050;2024-01-06T02:34:55;96185.53;;;3.24;100.00
75008;BME280;63554;48.940;12.050;2024-01-06T02:38:59;96190.47;;;3.20;100.00
75008;BME280;63554;48.940;12.050;2024-01-06T02:43:02;96187.97;;;3.19;100.00
75008;BME280;63554;48.940;12.050;2024-01-06T02:47:05;96190.25;;;3.22;100.00
75008;BME280;63554;48.940;12.050;2024-01-06T02:51:07;96206.69;;;3.25;100.00
75008;BME280;63554;48.940;12.050;2024-01-06T02:55:11;96203.81;;;3.20;100.00
75008;BME280;63554;48.940;12.050;2024-01-06T02:59:14;96208.31;;;3.13;100.00
75008;BME280;63554;48.940;12.050;2024-01-06T03:03:17;96204.81;;;3.12;100.00
75008;BME280;63554;48.940;12.050;2024-01-06T03:07:20;96210.56;;;3.09;100.00
75008;BME280;63554;48.940;12.050;2024-01-06T03:11:24;96196.38;;;3.09;100.00
75008;BME280;63554;48.940;12.050;2024-01-06T03:15:27;96192.28;;;3.06;100.00
75008;BME280;63554;48.940;12.050;2024-01-06T03:19:29;96191.44;;;3.06;100.00
75008;BME280;63554;48.940;12.050;2024-01-06T03:23:33;96195.97;;;3.05;100.00
75008;BME280;63554;48.940;12.050;2024-01-06T03:27:37;96199.88;;;3.03;100.00
75008;BME280;63554;48.940;12.050;2024-01-06T03:31:42;96190.81;;;3.04;100.00
75008;BME280;63554;48.940;12.050;2024-01-06T03:35:45;96194.09;;;3.06;100.00
75008;BME280;63554;48.940;12.050;2024-01-06T03:39:48;96202.78;;;3.08;100.00
75008;BME280;63554;48.940;12.050;2024-01-06T03:43:52;96195.56;;;3.08;100.00
75008;BME280;63554;48.940;12.050;2024-01-06T03:47:55;96203.59;;;3.08;100.00
75008;BME280;63554;48.940;12.050;2024-01-06T03:51:57;96206.22;;;3.02;100.00
75008;BME280;63554;48.940;12.050;2024-01-06T03:56:00;96205.84;;;3.05;100.00
75008;BME280;63554;48.940;12.050;2024-01-06T04:00:06;96204.59;;;3.01;100.00
75008;BME280;63554;48.940;12.050;2024-01-06T04:04:09;96198.19;;;2.95;100.00
75008;BME280;63554;48.940;12.050;2024-01-06T04:08:12;96211.78;;;3.00;100.00
75008;BME280;63554;48.940;12.050;2024-01-06T04:12:14;96216.91;;;2.95;100.00
75008;BME280;63554;48.940;12.050;2024-01-06T04:16:19;96214.84;;;2.97;100.00
75008;BME280;63554;48.940;12.050;2024-01-06T04:20:22;96222.66;;;2.99;100.00
75008;BME280;63554;48.940;12.050;2024-01-06T04:24:24;96230.88;;;2.97;100.00
75008;BME280;63554;48.940;12.050;2024-01-06T04:28:27;96235.59;;;2.95;100.00
75008;BME280;63554;48.940;12.050;2024-01-06T04:32:31;96241.13;;;2.93;100.00
75008;BME280;63554;48.940;12.050;2024-01-06T04:36:34;96235.59;;;2.95;100.00
75008;BME280;63554;48.940;12.050;2024-01-06T04:40:37;96233.31;;;2.92;100.00
75008;BME280;63554;48.940;12.050;2024-01-06T04:44:39;96241.75;;;2.95;100.00
75008;BME280;63554;48.940;12.050;2024-01-06T04:48:43;96239.72;;;2.97;100.00
75008;BME280;63554;48.940;12.050;2024-01-06T04:52:47;96253.50;;;2.94;100.00
75008;BME280;63554;48.940;12.050;2024-01-06T04:56:50;96239.88;;;2.89;100.00
75008;BME280;63554;48.940;12.050;2024-01-06T05:00:53;96253.50;;;2.94;100.00
75008;BME280;63554;48.940;12.050;2024-01-06T05:04:57;96258.59;;;2.89;100.00
75008;BME280;63554;48.940;12.050;2024-01-06T05:09:00;96260.44;;;2.89;100.00
75008;BME280;63554;48.940;12.050;2024-01-06T05:13:04;96258.59;;;2.89;100.00
75008;BME280;63554;48.940;12.050;2024-01-06T05:17:06;96263.75;;;2.91;100.00
75008;BME280;63554;48.940;12.050;2024-01-06T05:21:11;96264.75;;;2.90;100.00
75008;BME280;63554;48.940;12.050;2024-01-06T05:25:14;96258.41;;;2.91;100.00
75008;BME280;63554;48.940;12.050;2024-01-06T05:29:17;96273.41;;;2.92;100.00
75008;BME280;63554;48.940;12.050;2024-01-06T05:33:20;96268.47;;;2.95;100.00
75008;BME280;63554;48.940;12.050;2024-01-06T05:37:24;96272.00;;;2.96;100.00
75008;BME280;63554;48.940;12.050;2024-01-06T05:41:27;96274.03;;;2.94;100.00
75008;BME280;63554;48.940;12.050;2024-01-06T05:45:30;96270.72;;;2.92;100.00
75008;BME280;63554;48.940;12.050;2024-01-06T05:49:33;96275.94;;;3.00;100.00
75008;BME280;63554;48.940;12.050;2024-01-06T05:53:37;96272.03;;;3.03;100.00
75008;BME280;63554;48.940;12.050;2024-01-06T05:57:40;96272.84;;;3.03;100.00
75008;BME280;63554;48.940;12.050;2024-01-06T06:01:42;96277.81;;;3.06;100.00
75008;BME280;63554;48.940;12.050;2024-01-06T06:05:45;96298.38;;;3.12;100.00
75008;BME280;63554;48.940;12.050;2024-01-06T06:09:49;96301.88;;;3.13;100.00
75008;BME280;63554;48.940;12.050;2024-01-06T06:13:54;96301.06;;;3.12;100.00
75008;BME280;63554;48.940;12.050;2024-01-06T06:17:57;96302.13;;;3.18;100.00
75008;BME280;63554;48.940;12.050;2024-01-06T06:22:02;96305.16;;;3.15;100.00
75008;BME280;63554;48.940;12.050;2024-01-06T06:26:06;96317.72;;;3.14;100.00
75008;BME280;63554;48.940;12.050;2024-01-06T06:30:10;96313.59;;;3.12;100.00
75008;BME280;63554;48.940;12.050;2024-01-06T06:34:13;96327.97;;;3.11;100.00
75008;BME280;63554;48.940;12.050;2024-01-06T06:38:16;96322.19;;;3.07;100.00
75008;BME280;63554;48.940;12.050;2024-01-06T06:42:20;96325.31;;;3.11;100.00
75008;BME280;63554;48.940;12.050;2024-01-06T06:46:23;96335.00;;;3.12;100.00
75008;BME280;63554;48.940;12.050;2024-01-06T06:50:26;96344.63;;;3.13;100.00
75008;BME280;63554;48.940;12.050;2024-01-06T06:54:29;96341.53;;;3.09;100.00
75008;BME280;63554;48.940;12.050;2024-01-06T06:58:33;96344.00;;;3.11;100.00
75008;BME280;63554;48.940;12.050;2024-01-06T07:02:35;96353.06;;;3.10;100.00
75008;BME280;63554;48.940;12.050;2024-01-06T07:06:38;96368.31;;;3.16;100.00
75008;BME280;63554;48.940;12.050;2024-01-06T07:10:41;96373.22;;;3.12;100.00
75008;BME280;63554;48.940;12.050;2024-01-06T07:14:45;96383.28;;;3.10;100.00
75008;BME280;63554;48.940;12.050;2024-01-06T07:18:48;96383.03;;;3.05;100.00
75008;BME280;63554;48.940;12.050;2024-01-06T07:22:53;96387.19;;;3.08;100.00
75008;BME280;63554;48.940;12.050;2024-01-06T07:26:56;96391.22;;;2.97;100.00
75008;BME280;63554;48.940;12.050;2024-01-06T07:31:01;96400.69;;;3.00;100.00
75008;BME280;63554;48.940;12.050;2024-01-06T07:35:04;96400.69;;;3.00;100.00
75008;BME280;63554;48.940;12.050;2024-01-06T07:39:08;96403.34;;;3.00;100.00
75008;BME280;63554;48.940;12.050;2024-01-06T07:43:11;96416.16;;;3.04;100.00
75008;BME280;63554;48.940;12.050;2024-01-06T07:47:15;96418.59;;;3.06;100.00
75008;BME280;63554;48.940;12.050;2024-01-06T07:51:18;96407.50;;;3.02;100.00
75008;BME280;63554;48.940;12.050;2024-01-06T07:55:21;96411.81;;;3.03;100.00
75008;BME280;63554;48.940;12.050;2024-01-06T07:59:24;96408.75;;;3.06;100.00
75008;BME280;63554;48.940;12.050;2024-01-06T08:03:28;96418.03;;;3.10;100.00
75008;BME280;63554;48.940;12.050;2024-01-06T08:07:30;96412.91;;;3.15;100.00
75008;BME280;63554;48.940;12.050;2024-01-06T08:11:33;96430.28;;;3.26;100.00
75008;BME280;63554;48.940;12.050;2024-01-06T08:15:36;96437.22;;;3.21;100.00
75008;BME280;63554;48.940;12.050;2024-01-06T08:19:40;96427.97;;;3.23;100.00
75008;BME280;63554;48.940;12.050;2024-01-06T08:23:43;96433.31;;;3.23;100.00
75008;BME280;63554;48.940;12.050;2024-01-06T08:27:47;96424.28;;;3.24;100.00
75008;BME280;63554;48.940;12.050;2024-01-06T08:31:50;96427.22;;;3.29;100.00
75008;BME280;63554;48.940;12.050;2024-01-06T08:35:55;96437.75;;;3.38;100.00
75008;BME280;63554;48.940;12.050;2024-01-06T08:39:58;96435.00;;;3.31;100.00
75008;BME280;63554;48.940;12.050;2024-01-06T08:44:01;96442.06;;;3.39;100.00
75008;BME280;63554;48.940;12.050;2024-01-06T08:48:04;96456.84;;;3.34;100.00
75008;BME280;63554;48.940;12.050;2024-01-06T08:52:08;96460.84;;;3.45;100.00
75008;BME280;63554;48.940;12.050;2024-01-06T08:56:11;96459.22;;;3.51;100.00
75008;BME280;63554;48.940;12.050;2024-01-06T09:00:15;96468.28;;;3.56;100.00
75008;BME280;63554;48.940;12.050;2024-01-06T09:04:19;96469.13;;;3.57;100.00
75008;BME280;63554;48.940;12.050;2024-01-06T09:08:23;96460.75;;;3.67;100.00
75008;BME280;63554;48.940;12.050;2024-01-06T09:12:26;96463.91;;;3.49;100.00
75008;BME280;63554;48.940;12.050;2024-01-06T09:16:29;96478.56;;;3.53;100.00
75008;BME280;63554;48.940;12.050;2024-01-06T09:20:31;96478.78;;;3.58;100.00
75008;BME280;63554;48.940;12.050;2024-01-06T09:24:36;96486.66;;;3.66;100.00
75008;BME280;63554;48.940;12.050;2024-01-06T09:28:38;96487.34;;;3.75;100.00
75008;BME280;63554;48.940;12.050;2024-01-06T09:32:41;96485.09;;;3.79;100.00
75008;BME280;63554;48.940;12.050;2024-01-06T09:36:44;96485.28;;;3.77;100.00
75008;BME280;63554;48.940;12.050;2024-01-06T09:40:49;96485.31;;;3.84;100.00
75008;BME280;63554;48.940;12.050;2024-01-06T09:44:52;96480.53;;;3.72;100.00
75008;BME280;63554;48.940;12.050;2024-01-06T09:48:55;96477.63;;;3.74;100.00
75008;BME280;63554;48.940;12.050;2024-01-06T09:53:00;96488.16;;;3.75;100.00
75008;BME280;63554;48.940;12.050;2024-01-06T09:57:08;96482.78;;;3.75;100.00
75008;BME280;63554;48.940;12.050;2024-01-06T10:01:11;96485.50;;;3.82;100.00
75008;BME280;63554;48.940;12.050;2024-01-06T10:05:16;96490.22;;;3.80;100.00
75008;BME280;63554;48.940;12.050;2024-01-06T10:09:26;96485.72;;;3.81;100.00
75008;BME280;63554;48.940;12.050;2024-01-06T10:13:30;96493.13;;;3.79;100.00
75008;BME280;63554;48.940;12.050;2024-01-06T10:17:33;96496.81;;;3.78;100.00
75008;BME280;63554;48.940;12.050;2024-01-06T10:21:35;96498.84;;;3.75;100.00
75008;BME280;63554;48.940;12.050;2024-01-06T10:25:39;96493.53;;;3.82;100.00
75008;BME280;63554;48.940;12.050;2024-01-06T10:29:45;96489.81;;;3.76;100.00
75008;BME280;63554;48.940;12.050;2024-01-06T10:33:48;96497.00;;;3.76;100.00
75008;BME280;63554;48.940;12.050;2024-01-06T10:37:51;96501.16;;;3.79;100.00
75008;BME280;63554;48.940;12.050;2024-01-06T10:41:54;96491.44;;;3.78;100.00
75008;BME280;63554;48.940;12.050;2024-01-06T10:45:59;96498.19;;;3.67;100.00
75008;BME280;63554;48.940;12.050;2024-01-06T10:50:06;96499.47;;;3.78;100.00
75008;BME280;63554;48.940;12.050;2024-01-06T10:54:11;96492.50;;;3.83;100.00
75008;BME280;63554;48.940;12.050;2024-01-06T10:58:16;96490.47;;;3.85;100.00
75008;BME280;63554;48.940;12.050;2024-01-06T11:02:21;96481.44;;;3.93;100.00
75008;BME280;63554;48.940;12.050;2024-01-06T11:06:27;96476.72;;;4.02;100.00
75008;BME280;63554;48.940;12.050;2024-01-06T11:10:31;96475.72;;;4.09;100.00
75008;BME280;63554;48.940;12.050;2024-01-06T11:14:37;96473.47;;;4.06;100.00
75008;BME280;63554;48.940;12.050;2024-01-06T11:18:41;96471.59;;;4.00;100.00
75008;BME280;63554;48.940;12.050;2024-01-06T11:22:44;96475.28;;;3.99;100.00
75008;BME280;63554;48.940;12.050;2024-01-06T11:26:51;96477.97;;;3.99;100.00
75008;BME280;63554;48.940;12.050;2024-01-06T11:31:05;96473.47;;;4.06;100.00
75008;BME280;63554;48.940;12.050;2024-01-06T11:35:11;96461.69;;;3.94;100.00
75008;BME280;63554;48.940;12.050;2024-01-06T11:39:40;96468.13;;;4.06;100.00
75008;BME280;63554;48.940;12.050;2024-01-06T11:43:43;96462.78;;;4.13;100.00
75008;BME280;63554;48.940;12.050;2024-01-06T11:47:48;96470.59;;;4.08;100.00
75008;BME280;63554;48.940;12.050;2024-01-06T11:51:52;96476.78;;;4.08;100.00
75008;BME280;63554;48.940;12.050;2024-01-06T11:55:55;96464.19;;;4.02;100.00
75008;BME280;63554;48.940;12.050;2024-01-06T11:59:58;96471.78;;;3.99;100.00
75008;BME280;63554;48.940;12.050;2024-01-06T12:04:01;96461.28;;;4.04;100.00
75008;BME280;63554;48.940;12.050;2024-01-06T12:08:06;96464.75;;;3.91;100.00
75008;BME280;63554;48.940;12.050;2024-01-06T12:12:10;96466.38;;;3.92;100.00
75008;BME280;63554;48.940;12.050;2024-01-06T12:16:15;96464.13;;;3.89;100.00
75008;BME280;63554;48.940;12.050;2024-01-06T12:20:18;96463.72;;;3.92;100.00
75008;BME280;63554;48.940;12.050;2024-01-06T12:24:22;96463.94;;;3.97;100.00
75008;BME280;63554;48.940;12.050;2024-01-06T12:28:26;96459.47;;;4.04;100.00
75008;BME280;63554;48.940;12.050;2024-01-06T12:32:29;96464.38;;;3.94;100.00
75008;BME280;63554;48.940;12.050;2024-01-06T12:36:32;96463.53;;;3.93;100.00
75008;BME280;63554;48.940;12.050;2024-01-06T12:40:37;96450.97;;;3.94;100.00
75008;BME280;63554;48.940;12.050;2024-01-06T12:44:39;96446.88;;;3.98;100.00
75008;BME280;63554;48.940;12.050;2024-01-06T12:48:44;96444.59;;;3.95;100.00
75008;BME280;63554;48.940;12.050;2024-01-06T12:52:46;96429.56;;;3.94;100.00
75008;BME280;63554;48.940;12.050;2024-01-06T12:56:51;96428.91;;;3.92;100.00
75008;BME280;63554;48.940;12.050;2024-01-06T13:00:53;96434.94;;;3.94;100.00
75008;BME280;63554;48.940;12.050;2024-01-06T13:04:56;96426.66;;;3.95;100.00
75008;BME280;63554;48.940;12.050;2024-01-06T13:08:59;96433.91;;;4.02;100.00
75008;BME280;63554;48.940;12.050;2024-01-06T13:13:05;96451.19;;;3.99;100.00
75008;BME280;63554;48.940;12.050;2024-01-06T13:17:08;96450.13;;;3.87;100.00
75008;BME280;63554;48.940;12.050;2024-01-06T13:21:11;96455.03;;;3.83;100.00
75008;BME280;63554;48.940;12.050;2024-01-06T13:25:13;96457.91;;;3.82;100.00
75008;BME280;63554;48.940;12.050;2024-01-06T13:29:18;96462.44;;;3.74;100.00
75008;BME280;63554;48.940;12.050;2024-01-06T13:33:21;96458.47;;;3.70;100.00
75008;BME280;63554;48.940;12.050;2024-01-06T13:37:24;96469.59;;;3.74;100.00
75008;BME280;63554;48.940;12.050;2024-01-06T13:41:27;96468.34;;;3.70;100.00
75008;BME280;63554;48.940;12.050;2024-01-06T13:45:31;96468.34;;;3.63;100.00
75008;BME280;63554;48.940;12.050;2024-01-06T13:49:35;96478.44;;;3.68;100.00
75008;BME280;63554;48.940;12.050;2024-01-06T13:53:37;96474.13;;;3.67;100.00
75008;BME280;63554;48.940;12.050;2024-01-06T13:57:40;96472.88;;;3.69;100.00
75008;BME280;63554;48.940;12.050;2024-01-06T14:01:45;96471.03;;;3.70;100.00
75008;BME280;63554;48.940;12.050;2024-01-06T14:05:48;96472.25;;;3.67;100.00
75008;BME280;63554;48.940;12.050;2024-01-06T14:09:53;96477.00;;;3.65;100.00
75008;BME280;63554;48.940;12.050;2024-01-06T14:13:56;96480.91;;;3.69;100.00
75008;BME280;63554;48.940;12.050;2024-01-06T14:18:01;96478.22;;;3.63;100.00
75008;BME280;63554;48.940;12.050;2024-01-06T14:22:04;96493.22;;;3.64;100.00
75008;BME280;63554;48.940;12.050;2024-01-06T14:26:07;96496.94;;;3.63;100.00
75008;BME280;63554;48.940;12.050;2024-01-06T14:30:11;96497.75;;;3.63;100.00
75008;BME280;63554;48.940;12.050;2024-01-06T14:34:15;96492.16;;;3.58;100.00
75008;BME280;63554;48.940;12.050;2024-01-06T14:38:18;96495.25;;;3.55;100.00
75008;BME280;63554;48.940;12.050;2024-01-06T14:42:21;96505.31;;;3.53;100.00
75008;BME280;63554;48.940;12.050;2024-01-06T14:46:24;96506.34;;;3.52;100.00
75008;BME280;63554;48.940;12.050;2024-01-06T14:50:28;96512.31;;;3.54;100.00
75008;BME280;63554;48.940;12.050;2024-01-06T14:54:30;96511.31;;;3.55;100.00
75008;BME280;63554;48.940;12.050;2024-01-06T14:58:34;96513.97;;;3.55;100.00
75008;BME280;63554;48.940;12.050;2024-01-06T15:02:37;96514.78;;;3.55;100.00
75008;BME280;63554;48.940;12.050;2024-01-06T15:06:42;96512.56;;;3.59;100.00
75008;BME280;63554;48.940;12.050;2024-01-06T15:10:45;96513.38;;;3.60;100.00
75008;BME280;63554;48.940;12.050;2024-01-06T15:14:48;96511.75;;;4.62;100.00
75008;BME280;63554;48.940;12.050;2024-01-06T15:18:50;96525.63;;;5.32;100.00
75008;BME280;63554;48.940;12.050;2024-01-06T15:22:55;96526.59;;;5.78;100.00
75008;BME280;63554;48.940;12.050;2024-01-06T15:26:57;96518.75;;;5.76;100.00
75008;BME280;63554;48.940;12.050;2024-01-06T15:31:00;96524.97;;;5.77;100.00
75008;BME280;63554;48.940;12.050;2024-01-06T15:35:04;96522.63;;;5.93;100.00
75008;BME280;63554;48.940;12.050;2024-01-06T15:39:09;96517.91;;;5.96;96.02
75008;BME280;63554;48.940;12.050;2024-01-06T15:43:12;96530.38;;;5.10;93.75
75008;BME280;63554;48.940;12.050;2024-01-06T15:47:14;96526.09;;;4.41;96.49
75008;BME280;63554;48.940;12.050;2024-01-06T15:51:17;96533.72;;;3.89;99.77
75008;BME280;63554;48.940;12.050;2024-01-06T15:55:21;96538.72;;;3.64;100.00
75008;BME280;63554;48.940;12.050;2024-01-06T15:59:24;96534.34;;;3.56;100.00
75008;BME280;63554;48.940;12.050;2024-01-06T16:03:27;96536.78;;;3.51;100.00
75008;BME280;63554;48.940;12.050;2024-01-06T16:07:30;96543.97;;;3.50;100.00
75008;BME280;63554;48.940;12.050;2024-01-06T16:11:34;96534.69;;;3.46;100.00
75008;BME280;63554;48.940;12.050;2024-01-06T16:15:36;96535.91;;;3.44;100.00
75008;BME280;63554;48.940;12.050;2024-01-06T16:19:39;96546.59;;;3.44;100.00
75008;BME280;63554;48.940;12.050;2024-01-06T16:23:43;96548.41;;;3.36;100.00
75008;BME280;63554;48.940;12.050;2024-01-06T16:27:47;96546.88;;;3.27;100.00
75008;BME280;63554;48.940;12.050;2024-01-06T16:31:50;96543.72;;;3.17;100.00
75008;BME280;63554;48.940;12.050;2024-01-06T16:35:53;96552.59;;;3.17;100.00
75008;BME280;63554;48.940;12.050;2024-01-06T16:39:55;96552.31;;;3.12;100.00
75008;BME280;63554;48.940;12.050;2024-01-06T16:43:59;96552.97;;;3.14;100.00
75008;BME280;63554;48.940;12.050;2024-01-06T16:48:03;96555.91;;;3.20;100.00
75008;BME280;63554;48.940;12.050;2024-01-06T16:52:05;96553.78;;;3.15;100.00
75008;BME280;63554;48.940;12.050;2024-01-06T16:56:08;96563.84;;;3.13;100.00
75008;BME280;63554;48.940;12.050;2024-01-06T17:00:13;96566.69;;;3.11;100.00
75008;BME280;63554;48.940;12.050;2024-01-06T17:04:16;96567.72;;;3.10;100.00
75008;BME280;63554;48.940;12.050;2024-01-06T17:08:19;96566.91;;;3.10;100.00
75008;BME280;63554;48.940;12.050;2024-01-06T17:12:23;96561.94;;;3.07;100.00
75008;BME280;63554;48.940;12.050;2024-01-06T17:16:27;96566.91;;;3.10;100.00
75008;BME280;63554;48.940;12.050;2024-01-06T17:20:29;96578.41;;;3.10;100.00
75008;BME280;63554;48.940;12.050;2024-01-06T17:24:32;96578.59;;;3.09;100.00
75008;BME280;63554;48.940;12.050;2024-01-06T17:28:36;96574.66;;;3.05;100.00
75008;BME280;63554;48.940;12.050;2024-01-06T17:32:41;96579.44;;;3.09;100.00
75008;BME280;63554;48.940;12.050;2024-01-06T17:36:43;96578.78;;;3.07;100.00
75008;BME280;63554;48.940;12.050;2024-01-06T17:40:46;96582.06;;;3.03;100.00
75008;BME280;63554;48.940;12.050;2024-01-06T17:44:49;96591.47;;;2.99;100.00
75008;BME280;63554;48.940;12.050;2024-01-06T17:48:53;96589.63;;;2.99;100.00
75008;BME280;63554;48.940;12.050;2024-01-06T17:52:56;96588.41;;;3.02;100.00
75008;BME280;63554;48.940;12.050;2024-01-06T17:56:59;96579.75;;;3.00;100.00
75008;BME280;63554;48.940;12.050;2024-01-06T18:01:05;96585.31;;;2.98;100.00
75008;BME280;63554;48.940;12.050;2024-01-06T18:05:10;96592.69;;;2.96;100.00
75008;BME280;63554;48.940;12.050;2024-01-06T18:09:13;96581.56;;;2.92;100.00
75008;BME280;63554;48.940;12.050;2024-01-06T18:13:20;96590.38;;;2.93;100.00
75008;BME280;63554;48.940;12.050;2024-01-06T18:17:23;96589.94;;;2.89;100.00
75008;BME280;63554;48.940;12.050;2024-01-06T18:21:27;96595.00;;;2.84;100.00
75008;BME280;63554;48.940;12.050;2024-01-06T18:25:30;96588.84;;;2.84;100.00
75008;BME280;63554;48.940;12.050;2024-01-06T18:29:33;96585.53;;;2.82;100.00
75008;BME280;63554;48.940;12.050;2024-01-06T18:33:38;96597.25;;;2.81;100.00
75008;BME280;63554;48.940;12.050;2024-01-06T18:37:42;96592.09;;;2.79;100.00
75008;BME280;63554;48.940;12.050;2024-01-06T18:41:45;96588.41;;;2.80;100.00
75008;BME280;63554;48.940;12.050;2024-01-06T18:45:48;96593.19;;;2.85;100.00
75008;BME280;63554;48.940;12.050;2024-01-06T18:49:51;96590.50;;;2.85;100.00
75008;BME280;63554;48.940;12.050;2024-01-06T18:53:55;96584.72;;;2.81;100.00
75008;BME280;63554;48.940;12.050;2024-01-06T18:57:58;96582.03;;;2.81;100.00
75008;BME280;63554;48.940;12.050;2024-01-06T19:02:01;96591.69;;;2.82;100.00
75008;BME280;63554;48.940;12.050;2024-01-06T19:06:04;96596.81;;;2.77;100.00
75008;BME280;63554;48.940;12.050;2024-01-06T19:10:09;96596.16;;;2.75;100.00
75008;BME280;63554;48.940;12.050;2024-01-06T19:14:12;96597.75;;;2.69;100.00
75008;BME280;63554;48.940;12.050;2024-01-06T19:18:15;96600.22;;;2.71;100.00
75008;BME280;63554;48.940;12.050;2024-01-06T19:22:18;96592.94;;;3.01;100.00
75008;BME280;63554;48.940;12.050;2024-01-06T19:26:22;96597.16;;;3.39;100.00
75008;BME280;63554;48.940;12.050;2024-01-06T19:30:25;96593.56;;;3.25;100.00
75008;BME280;63554;48.940;12.050;2024-01-06T19:34:28;96597.69;;;3.06;100.00
75008;BME280;63554;48.940;12.050;2024-01-06T19:38:31;96586.03;;;2.92;100.00
75008;BME280;63554;48.940;12.050;2024-01-06T19:42:35;96595.84;;;2.85;100.00
75008;BME280;63554;48.940;12.050;2024-01-06T19:46:39;96600.28;;;2.77;100.00
75008;BME280;63554;48.940;12.050;2024-01-06T19:50:41;96590.38;;;2.71;100.00
75008;BME280;63554;48.940;12.050;2024-01-06T19:54:44;96590.09;;;2.66;100.00
75008;BME280;63554;48.940;12.050;2024-01-06T19:58:48;96591.13;;;2.65;100.00
75008;BME280;63554;48.940;12.050;2024-01-06T20:02:51;96579.34;;;2.60;100.00
75008;BME280;63554;48.940;12.050;2024-01-06T20:06:54;96589.41;;;2.57;100.00
75008;BME280;63554;48.940;12.050;2024-01-06T20:10:56;96591.03;;;2.58;100.00
75008;BME280;63554;48.940;12.050;2024-01-06T20:15:04;96587.53;;;2.58;100.00
75008;BME280;63554;48.940;12.050;2024-01-06T20:19:12;96577.81;;;2.50;100.00
75008;BME280;63554;48.940;12.050;2024-01-06T20:23:15;96578.25;;;2.54;100.00
75008;BME280;63554;48.940;12.050;2024-01-06T20:27:17;96584.81;;;2.51;100.00
75008;BME280;63554;48.940;12.050;2024-01-06T20:31:21;96578.84;;;2.49;100.00
75008;BME280;63554;48.940;12.050;2024-01-06T20:35:24;96584.81;;;2.51;100.00
75008;BME280;63554;48.940;12.050;2024-01-06T20:39:27;96587.31;;;2.53;100.00
75008;BME280;63554;48.940;12.050;2024-01-06T20:43:30;96572.47;;;2.50;100.00
75008;BME280;63554;48.940;12.050;2024-01-06T20:47:35;96575.53;;;2.47;100.00
75008;BME280;63554;48.940;12.050;2024-01-06T20:51:37;96574.66;;;2.47;100.00
75008;BME280;63554;48.940;12.050;2024-01-06T20:55:41;96560.50;;;2.46;100.00
75008;BME280;63554;48.940;12.050;2024-01-06T20:59:44;96566.41;;;2.42;100.00
75008;BME280;63554;48.940;12.050;2024-01-06T21:03:48;96569.28;;;2.40;100.00
75008;BME280;63554;48.940;12.050;2024-01-06T21:07:53;96567.81;;;2.37;100.00
75008;BME280;63554;48.940;12.050;2024-01-06T21:11:55;96571.13;;;2.40;100.00